This is the latest recevied weather packets stored in our database for station/object KD2DXJ. If no packets are shown the sender has not sent any weather packets the latest 10 day(s).
| Time | Temp. | Humidity | Pressure | Rain* | Wind** | Luminosity | Snow |
|---|---|---|---|---|---|---|---|
| 1778029144 | 8.89° C | 98% | 1008.6 hPa | 3.05 mm | - | 0 W/m² | - |
| 1778028842 | 8.89° C | 98% | 1008.3 hPa | 3.05 mm | - | 0 W/m² | - |
| 1778028537 | 8.89° C | 98% | 1008.8 hPa | 2.29 mm | - | 0 W/m² | - |
| 1778028235 | 8.89° C | 98% | 1008.6 hPa | 3.05 mm | - | 0 W/m² | - |
| 1778027931 | 8.89° C | 98% | 1008.7 hPa | 3.05 mm | - | 0 W/m² | - |
| 1778027627 | 8.89° C | 98% | 1008.4 hPa | 1.27 mm | - | 0 W/m² | - |
| 1778027324 | 8.89° C | 97% | 1008.6 hPa | 2.29 mm | - | 0 W/m² | - |
| 1778027020 | 8.89° C | 97% | 1008.2 hPa | 3.05 mm | - | 0 W/m² | - |
| 1778026716 | 9.44° C | 96% | 1008.1 hPa | 3.05 mm | - | 0 W/m² | - |
| 1778026413 | 9.44° C | 95% | 1008 hPa | 3.05 mm | - | 0 W/m² | - |
| 1778026110 | 9.44° C | 94% | 1008 hPa | 1.78 mm | - | 0 W/m² | - |
| 1778025808 | 10° C | 93% | 1007.9 hPa | 1.27 mm | - | 0 W/m² | - |
| 1778025504 | 10° C | 91% | 1007.7 hPa | 2.29 mm | - | 1 W/m² | - |
| 1778025202 | 10.56° C | 88% | 1008.1 hPa | 1.27 mm | - | 1 W/m² | - |
| 1778024899 | 11.11° C | 84% | 1007.7 hPa | 1.78 mm | - | 1 W/m² | - |
| 1778024597 | 11.67° C | 83% | 1007.5 hPa | 1.78 mm | - | 1 W/m² | - |
| 1778024293 | 12.22° C | 76% | 1007.5 hPa | 0 mm | - | 2 W/m² | - |
| 1778023991 | 12.78° C | 72% | 1007.2 hPa | 0 mm | - | 2 W/m² | - |
| 1778023688 | 13.33° C | 68% | 1006.8 hPa | 0 mm | - | 2 W/m² | - |
| 1778023386 | 14.44° C | 65% | 1006.7 hPa | 0 mm | - | 2 W/m² | - |
| 1778023082 | 14.44° C | 65% | 1006.2 hPa | 0 mm | - | 4 W/m² | - |
| 1778022781 | 14.44° C | 66% | 1006 hPa | 0 mm | - | 5 W/m² | - |
| 1778022478 | 14.44° C | 66% | 1006 hPa | 0 mm | - | 6 W/m² | - |
| 1778022175 | 14.44° C | 66% | 1005.9 hPa | 0 mm | - | 7 W/m² | - |
| 1778021872 | 15° C | 66% | 1005.9 hPa | 0 mm | - | 7 W/m² | - |
* Rain latest hour (hover to see other rain measurements)
** Current wind speed in m/s (hover to see current wind gust speed)